Time;durP1;ratioP1;P1;durP2;ratioP2;P2;SDS_P1;SDS_P2;PMS_P1;PMS_P2;Temp;Humidity;BMP_temperature;BMP_pressure;BME280_temperature;BME280_humidity;BME280_pressure;Samples;Min_cycle;Max_cycle;Signal;HPM_P1;HPM_P2
2021/01/21 00:01:18;;;;;;;8.43;2.80;;;3.80;99.90;;;;;;5046605;28;20060;-75
2021/01/21 00:03:44;;;;;;;18.20;9.93;;;3.70;99.90;;;;;;5045878;28;20069;-74
2021/01/21 00:06:09;;;;;;;14.27;7.88;;;3.70;99.90;;;;;;5046825;28;20040;-73
2021/01/21 00:08:35;;;;;;;10.02;5.18;;;3.70;99.90;;;;;;5046919;28;20053;-74
2021/01/21 00:11:00;;;;;;;7.95;2.92;;;3.60;99.90;;;;;;5046878;28;20033;-74
2021/01/21 00:13:26;;;;;;;7.05;2.85;;;3.60;99.90;;;;;;5046854;28;20037;-75
2021/01/21 00:15:51;;;;;;;9.15;4.40;;;3.60;99.90;;;;;;5046042;28;20049;-74
2021/01/21 00:18:17;;;;;;;9.43;4.00;;;3.50;99.90;;;;;;5046847;28;20336;-75
2021/01/21 00:20:43;;;;;;;5.60;1.00;;;3.50;99.90;;;;;;5046164;28;20051;-73
2021/01/21 00:23:08;;;;;;;7.15;2.30;;;3.90;99.90;;;;;;5046140;28;20033;-73
2021/01/21 00:25:34;;;;;;;7.03;2.00;;;3.90;99.90;;;;;;5036175;28;20155;-75
2021/01/21 00:27:59;;;;;;;7.40;2.60;;;3.90;99.90;;;;;;5027511;28;20032;-74
2021/01/21 00:30:25;;;;;;;7.82;2.22;;;3.90;99.90;;;;;;5035161;28;20381;-74
2021/01/21 00:32:51;;;;;;;8.45;4.10;;;3.90;99.90;;;;;;5047624;28;20021;-74
2021/01/21 00:35:16;;;;;;;4.53;1.42;;;3.90;99.90;;;;;;5045976;28;20040;-74
2021/01/21 00:37:42;;;;;;;3.95;1.13;;;4.00;99.90;;;;;;5047324;28;20087;-74
2021/01/21 00:40:08;;;;;;;6.28;3.00;;;4.00;99.90;;;;;;5045745;28;20044;-74
2021/01/21 00:42:34;;;;;;;4.93;1.75;;;4.10;99.90;;;;;;5046972;28;20044;-74
2021/01/21 00:45:03;;;;;;;5.18;1.67;;;4.10;99.90;;;;;;5046495;28;20075;-74
2021/01/21 00:47:29;;;;;;;7.47;3.15;;;4.10;99.90;;;;;;5045625;28;20025;-74
2021/01/21 00:49:55;;;;;;;7.00;2.00;;;4.10;99.90;;;;;;5047583;28;20051;-74
2021/01/21 00:52:20;;;;;;;3.58;1.45;;;4.10;99.90;;;;;;5045927;28;20394;-75
2021/01/21 00:54:46;;;;;;;2.60;0.73;;;4.10;99.90;;;;;;5046212;28;20045;-74
2021/01/21 00:57:11;;;;;;;4.25;1.38;;;4.70;99.90;;;;;;5046049;28;20032;-74
2021/01/21 00:59:37;;;;;;;3.33;0.90;;;5.00;99.90;;;;;;5046213;28;20425;-74
2021/01/21 01:02:03;;;;;;;3.60;0.73;;;5.10;99.90;;;;;;5046273;28;20502;-75
2021/01/21 01:04:28;;;;;;;3.85;0.65;;;5.40;99.90;;;;;;5045767;28;20068;-74
2021/01/21 01:06:54;;;;;;;2.30;0.52;;;5.80;99.90;;;;;;5045380;28;20124;-74
2021/01/21 01:09:20;;;;;;;3.10;0.73;;;5.90;99.90;;;;;;5045838;28;20100;-74
2021/01/21 01:11:46;;;;;;;2.63;0.88;;;6.10;99.90;;;;;;5045329;28;20137;-74
2021/01/21 01:14:12;;;;;;;9.85;0.90;;;6.30;99.90;;;;;;5044176;28;20048;-74
2021/01/21 01:16:37;;;;;;;3.95;0.90;;;6.50;99.90;;;;;;5041901;28;20021;-74
2021/01/21 01:19:03;;;;;;;1.90;0.50;;;6.50;99.90;;;;;;5044221;28;20055;-74
2021/01/21 01:21:29;;;;;;;1.95;0.50;;;6.60;99.90;;;;;;5047214;28;20075;-74
2021/01/21 01:23:55;;;;;;;2.00;0.55;;;6.70;99.90;;;;;;5045806;28;20045;-74
2021/01/21 01:26:21;;;;;;;2.90;0.70;;;6.80;99.70;;;;;;5046707;28;20028;-74
2021/01/21 01:28:47;;;;;;;4.60;1.45;;;6.90;99.00;;;;;;5041069;28;20090;-74
2021/01/21 01:31:13;;;;;;;3.05;0.80;;;6.90;99.00;;;;;;5051011;28;20514;-74
2021/01/21 01:33:38;;;;;;;2.97;0.80;;;6.80;99.90;;;;;;5051045;28;20483;-74
2021/01/21 01:36:04;;;;;;;4.00;1.58;;;6.20;99.90;;;;;;5046981;28;20385;-75
2021/01/21 01:38:30;;;;;;;3.08;1.30;;;6.40;99.90;;;;;;5047076;28;20580;-74
2021/01/21 01:40:56;;;;;;;2.22;0.70;;;6.60;99.90;;;;;;5043683;28;20036;-74
2021/01/21 01:43:21;;;;;;;2.50;0.80;;;6.50;99.90;;;;;;5049890;28;20056;-74
2021/01/21 01:45:48;;;;;;;4.63;1.27;;;6.30;99.90;;;;;;5045179;28;20025;-74
2021/01/21 01:48:13;;;;;;;5.57;1.20;;;5.90;99.90;;;;;;5047283;28;20516;-74
2021/01/21 01:50:40;;;;;;;3.45;0.90;;;5.90;99.90;;;;;;5046840;28;20017;-74
2021/01/21 01:53:06;;;;;;;2.97;0.90;;;5.70;99.90;;;;;;5046759;28;20747;-74
2021/01/21 01:55:32;;;;;;;3.33;0.60;;;5.60;99.90;;;;;;5049873;28;20036;-74
2021/01/21 01:57:59;;;;;;;6.00;1.20;;;5.60;99.90;;;;;;5049401;28;20377;-74
2021/01/21 02:00:24;;;;;;;2.75;0.80;;;5.50;99.90;;;;;;5048411;28;20255;-73
2021/01/21 02:02:51;;;;;;;4.18;0.98;;;5.40;99.90;;;;;;5045579;28;20620;-74
2021/01/21 02:05:20;;;;;;;4.28;1.10;;;5.20;99.90;;;;;;5049380;28;20033;-74
2021/01/21 02:07:46;;;;;;;8.10;2.30;;;5.20;99.90;;;;;;5043950;28;20033;-74
2021/01/21 02:10:14;;;;;;;2.53;0.80;;;5.20;99.90;;;;;;5049492;28;20021;-74
2021/01/21 02:13:17;;;;;;;3.20;1.00;;;5.20;99.90;;;;;;5049100;28;20516;-74
2021/01/21 02:16:11;;;;;;;4.97;0.90;;;5.10;99.90;;;;;;5049370;28;20028;-74
2021/01/21 02:18:50;;;;;;;3.28;1.05;;;5.00;99.90;;;;;;5049107;28;20620;-74
2021/01/21 02:21:34;;;;;;;4.65;1.63;;;4.90;99.90;;;;;;5045910;28;20037;-74
2021/01/21 02:24:15;;;;;;;4.95;1.08;;;4.80;99.90;;;;;;5046803;28;20052;-74
2021/01/21 02:26:49;;;;;;;3.45;1.10;;;4.80;99.90;;;;;;5049141;28;20036;-74
2021/01/21 02:29:26;;;;;;;4.15;0.90;;;4.70;99.90;;;;;;5044238;28;20215;-74
2021/01/21 02:32:01;;;;;;;3.40;0.73;;;4.60;99.90;;;;;;5049170;28;20025;-74
2021/01/21 02:35:05;;;;;;;1.98;0.50;;;4.40;99.90;;;;;;5049906;28;20422;-74
2021/01/21 02:37:32;;;;;;;4.53;0.88;;;4.40;99.90;;;;;;5012597;28;20034;-74
2021/01/21 02:40:00;;;;;;;6.85;2.28;;;4.30;99.90;;;;;;5028154;28;20075;-74
2021/01/21 02:42:27;;;;;;;5.97;2.55;;;4.30;99.90;;;;;;5028334;28;20036;-74
2021/01/21 02:44:52;;;;;;;5.47;3.15;;;4.30;99.90;;;;;;5029222;28;20057;-74
2021/01/21 02:47:21;;;;;;;7.43;2.40;;;4.20;99.90;;;;;;5037166;28;20024;-74
2021/01/21 02:49:48;;;;;;;4.63;1.95;;;4.30;99.90;;;;;;5046384;28;20033;-74
2021/01/21 02:52:33;;;;;;;4.47;1.58;;;4.10;99.90;;;;;;5045621;28;20064;-73
2021/01/21 02:55:40;;;;;;;2.83;0.70;;;4.10;99.90;;;;;;5048452;28;20037;-74
2021/01/21 02:58:07;;;;;;;2.35;0.70;;;4.30;99.90;;;;;;5031305;28;20068;-74
2021/01/21 03:00:35;;;;;;;3.30;0.40;;;4.90;99.90;;;;;;5048985;28;20055;-74
2021/01/21 03:03:07;;;;;;;2.70;0.20;;;5.40;99.90;;;;;;5048166;28;20041;-74
2021/01/21 03:05:34;;;;;;;3.38;0.90;;;5.80;99.90;;;;;;5049180;28;20021;-74
2021/01/21 03:08:00;;;;;;;2.72;0.70;;;5.70;99.90;;;;;;5046951;28;20040;-74
2021/01/21 03:10:26;;;;;;;3.80;0.82;;;5.60;99.90;;;;;;5049201;28;20028;-74
2021/01/21 03:12:56;;;;;;;3.05;1.05;;;5.50;99.90;;;;;;5047143;28;20033;-74
2021/01/21 03:15:23;;;;;;;5.57;1.48;;;5.40;99.90;;;;;;5048170;28;20074;-74
2021/01/21 03:17:50;;;;;;;3.42;1.10;;;5.30;99.90;;;;;;5047045;28;20036;-74
2021/01/21 03:20:16;;;;;;;0.90;0.30;;;5.30;99.90;;;;;;5048037;28;20394;-74
2021/01/21 03:22:42;;;;;;;1.40;0.60;;;5.80;99.90;;;;;;5047085;28;20397;-74
2021/01/21 03:25:09;;;;;;;1.35;0.30;;;6.20;99.90;;;;;;5048346;28;20528;-74
2021/01/21 03:27:35;;;;;;;0.70;0.17;;;6.50;99.90;;;;;;5046652;28;20063;-74
2021/01/21 03:30:01;;;;;;;0.70;0.20;;;6.90;99.90;;;;;;5048161;28;20115;-74
2021/01/21 03:32:26;;;;;;;1.38;0.30;;;7.10;99.90;;;;;;5047418;28;20029;-74
2021/01/21 03:34:52;;;;;;;0.98;0.40;;;7.30;99.90;;;;;;5047654;28;20445;-74
2021/01/21 03:37:18;;;;;;;1.63;0.15;;;7.50;99.90;;;;;;5047335;28;20127;-74
2021/01/21 03:39:43;;;;;;;3.38;0.20;;;7.60;99.90;;;;;;5033573;28;20463;-75
2021/01/21 03:42:09;;;;;;;0.57;0.30;;;7.80;99.90;;;;;;5027866;28;20108;-74
2021/01/21 03:44:34;;;;;;;1.30;0.25;;;7.80;99.90;;;;;;5038103;28;20053;-75
2021/01/21 03:47:00;;;;;;;0.90;0.20;;;7.60;99.90;;;;;;5047182;28;20024;-74
2021/01/21 03:49:26;;;;;;;1.00;0.30;;;8.00;99.90;;;;;;5041990;28;20486;-74
2021/01/21 03:51:51;;;;;;;1.20;0.38;;;8.00;99.90;;;;;;5041758;28;20022;-75
2021/01/21 03:54:17;;;;;;;0.88;0.20;;;8.00;99.90;;;;;;5047196;28;20048;-75
2021/01/21 03:56:42;;;;;;;2.17;0.20;;;8.10;99.90;;;;;;5046844;28;20443;-74
2021/01/21 03:59:08;;;;;;;0.57;0.10;;;8.20;99.90;;;;;;5046648;28;20037;-75
2021/01/21 04:01:34;;;;;;;1.05;0.20;;;8.10;99.90;;;;;;5046759;28;20191;-75
2021/01/21 04:03:59;;;;;;;0.93;0.40;;;8.20;99.90;;;;;;5046423;28;20401;-75
2021/01/21 04:06:25;;;;;;;1.50;0.32;;;8.10;99.90;;;;;;5045832;28;20841;-75
2021/01/21 04:08:51;;;;;;;1.85;0.30;;;8.00;99.90;;;;;;5046455;28;20120;-75
2021/01/21 04:11:16;;;;;;;1.92;0.32;;;7.90;99.90;;;;;;5045929;28;20033;-75
2021/01/21 04:13:42;;;;;;;2.33;0.50;;;7.90;99.90;;;;;;5047086;28;20036;-74
2021/01/21 04:16:08;;;;;;;0.90;0.30;;;7.90;99.90;;;;;;5045475;28;20032;-74
2021/01/21 04:18:33;;;;;;;1.77;0.30;;;7.90;99.90;;;;;;5046851;28;20072;-74
2021/01/21 04:21:00;;;;;;;3.92;0.50;;;8.00;99.90;;;;;;5045938;28;20442;-75
2021/01/21 04:23:25;;;;;;;2.05;0.50;;;7.90;99.90;;;;;;5047573;28;20040;-74
2021/01/21 04:25:51;;;;;;;1.77;0.50;;;7.90;99.90;;;;;;5045606;28;20453;-75
2021/01/21 04:28:17;;;;;;;1.42;0.40;;;7.80;99.90;;;;;;5046678;28;20060;-74
2021/01/21 04:30:42;;;;;;;1.23;0.20;;;7.80;99.90;;;;;;5045485;28;20428;-74
2021/01/21 04:33:08;;;;;;;0.85;0.30;;;7.70;99.90;;;;;;5047391;28;20029;-75
2021/01/21 04:35:33;;;;;;;0.88;0.30;;;7.80;99.90;;;;;;5027082;28;20032;-75
2021/01/21 04:37:59;;;;;;;1.92;0.50;;;7.60;99.90;;;;;;5046751;28;20415;-74
2021/01/21 04:40:29;;;;;;;3.08;0.63;;;7.50;99.90;;;;;;5045163;28;20104;-75
2021/01/21 04:42:55;;;;;;;1.63;0.50;;;7.40;99.90;;;;;;5026655;28;20517;-75
2021/01/21 04:45:21;;;;;;;2.58;0.47;;;7.40;99.90;;;;;;5025896;28;20470;-74
2021/01/21 04:47:47;;;;;;;3.72;0.50;;;7.30;99.90;;;;;;5044188;28;20400;-74
2021/01/21 04:50:13;;;;;;;1.77;0.45;;;7.20;99.90;;;;;;5045831;28;20025;-74
2021/01/21 04:52:43;;;;;;;1.55;0.45;;;7.20;99.90;;;;;;5045600;28;20028;-75
2021/01/21 04:55:14;;;;;;;3.38;1.10;;;7.30;99.90;;;;;;5046310;28;20036;-74
2021/01/21 04:58:01;;;;;;;1.35;0.40;;;7.30;99.90;;;;;;5045597;28;20037;-74
2021/01/21 05:00:27;;;;;;;1.33;0.30;;;7.50;99.90;;;;;;5046269;28;20044;-74
2021/01/21 05:02:53;;;;;;;0.60;0.20;;;7.50;99.90;;;;;;5040605;28;20065;-74
2021/01/21 05:05:20;;;;;;;1.50;0.25;;;7.60;99.90;;;;;;5047566;28;20109;-74
2021/01/21 05:07:46;;;;;;;1.55;0.30;;;7.50;99.90;;;;;;5050266;28;20068;-74
2021/01/21 05:10:12;;;;;;;2.45;0.55;;;7.40;99.90;;;;;;5050090;28;20029;-74
2021/01/21 05:12:39;;;;;;;1.33;0.32;;;7.50;99.90;;;;;;5050034;28;20036;-74
2021/01/21 05:15:05;;;;;;;3.25;0.40;;;7.60;99.90;;;;;;5048220;28;20096;-74
2021/01/21 05:17:32;;;;;;;1.30;0.30;;;7.30;99.90;;;;;;5047123;28;20029;-74
2021/01/21 05:19:59;;;;;;;1.52;0.60;;;7.30;99.90;;;;;;5047015;28;20508;-74
2021/01/21 05:22:25;;;;;;;1.13;0.65;;;7.20;99.90;;;;;;5046091;28;20055;-74
2021/01/21 05:24:50;;;;;;;2.38;0.60;;;7.00;99.90;;;;;;5046919;28;20155;-74
2021/01/21 05:27:17;;;;;;;4.80;1.15;;;6.80;99.90;;;;;;5048256;28;20029;-74
2021/01/21 05:29:45;;;;;;;4.97;1.10;;;6.60;99.90;;;;;;5048510;28;20102;-75
2021/01/21 05:32:16;;;;;;;6.22;1.88;;;6.50;99.90;;;;;;5048647;28;20048;-75
2021/01/21 05:34:44;;;;;;;5.55;1.65;;;6.30;99.90;;;;;;5048252;28;20060;-75
2021/01/21 05:37:11;;;;;;;6.13;1.77;;;6.10;99.90;;;;;;5029719;28;20483;-74
2021/01/21 05:39:42;;;;;;;6.28;1.95;;;6.00;99.90;;;;;;5029214;28;20617;-74
2021/01/21 05:42:09;;;;;;;4.55;1.58;;;5.90;99.90;;;;;;5045602;28;20029;-74
2021/01/21 05:44:35;;;;;;;4.03;1.38;;;5.90;99.90;;;;;;5047862;28;20053;-75
2021/01/21 05:47:09;;;;;;;7.78;2.10;;;5.80;99.90;;;;;;5047851;28;20289;-74
2021/01/21 05:49:34;;;;;;;3.42;1.73;;;5.70;99.90;;;;;;5048395;28;20041;-75
2021/01/21 05:52:00;;;;;;;8.35;3.45;;;5.60;99.90;;;;;;5047542;28;20039;-74
2021/01/21 05:54:30;;;;;;;6.00;2.78;;;5.60;99.90;;;;;;5047986;28;20371;-75
2021/01/21 05:56:58;;;;;;;6.72;1.40;;;5.50;99.90;;;;;;5047884;28;20351;-74
2021/01/21 05:59:26;;;;;;;3.47;0.90;;;5.50;99.90;;;;;;5048373;28;20434;-74
2021/01/21 06:01:58;;;;;;;4.15;0.70;;;5.50;99.90;;;;;;5042997;28;20521;-74
2021/01/21 06:04:27;;;;;;;3.75;1.30;;;5.70;99.90;;;;;;5047085;28;20082;-74
2021/01/21 06:06:54;;;;;;;5.10;1.02;;;5.60;99.90;;;;;;5048207;28;20037;-74
2021/01/21 06:09:27;;;;;;;5.25;2.17;;;5.40;99.90;;;;;;5047498;28;20060;-75
2021/01/21 06:11:56;;;;;;;;;;;5.60;99.90;;;;;;5041462;28;20541;-75
2021/01/21 06:14:24;;;;;;;4.50;1.75;;;5.60;99.90;;;;;;5036655;28;19939;-75
2021/01/21 06:16:51;;;;;;;4.97;1.70;;;5.50;99.90;;;;;;5040514;28;20116;-75
2021/01/21 06:19:17;;;;;;;3.42;0.82;;;5.50;99.90;;;;;;5039475;28;20064;-75
2021/01/21 06:21:47;;;;;;;2.03;0.90;;;5.40;99.90;;;;;;5043344;28;20147;-75
2021/01/21 06:24:16;;;;;;;4.10;0.90;;;5.60;99.90;;;;;;5046335;28;20044;-75
2021/01/21 06:26:46;;;;;;;6.30;1.98;;;5.70;99.90;;;;;;5044132;28;20025;-76
2021/01/21 06:29:16;;;;;;;5.88;2.30;;;5.70;99.90;;;;;;5046267;28;20047;-75
2021/01/21 06:31:42;;;;;;;7.55;2.80;;;5.70;99.90;;;;;;5038172;28;20029;-76
2021/01/21 06:34:15;;;;;;;3.58;1.30;;;5.50;99.90;;;;;;5039364;28;20082;-75
2021/01/21 06:36:44;;;;;;;3.60;1.40;;;5.30;99.90;;;;;;5043040;28;20047;-75
2021/01/21 06:39:18;;;;;;;3.90;1.70;;;5.20;99.90;;;;;;5042948;28;20069;-75
2021/01/21 06:41:46;;;;;;;3.47;1.42;;;5.20;99.90;;;;;;5027007;28;20075;-75
2021/01/21 06:44:21;;;;;;;6.30;1.73;;;5.10;99.90;;;;;;5038146;28;20045;-75
2021/01/21 06:46:49;;;;;;;5.50;1.60;;;5.10;99.90;;;;;;5041220;28;20506;-75
2021/01/21 06:49:17;;;;;;;18.45;9.02;;;5.10;99.90;;;;;;5046663;28;20025;-75
2021/01/21 06:51:47;;;;;;;22.13;13.15;;;5.00;99.90;;;;;;5039063;28;20522;-75
2021/01/21 06:54:15;;;;;;;8.85;4.03;;;5.00;99.90;;;;;;5035091;28;20521;-75
2021/01/21 06:56:40;;;;;;;4.65;1.58;;;5.00;99.90;;;;;;5045988;28;20031;-75
2021/01/21 06:59:06;;;;;;;4.70;1.63;;;4.90;99.90;;;;;;5034608;28;20112;-75
2021/01/21 07:01:32;;;;;;;8.60;4.20;;;5.00;99.90;;;;;;5041093;28;20308;-75
2021/01/21 07:04:20;;;;;;;7.22;1.98;;;5.00;99.90;;;;;;5036911;28;20105;-75
2021/01/21 07:06:52;;;;;;;3.15;0.70;;;5.10;99.90;;;;;;5041254;28;20083;-75
2021/01/21 07:09:24;;;;;;;3.25;0.80;;;5.50;99.90;;;;;;5037197;28;20033;-75
2021/01/21 07:11:52;;;;;;;6.57;2.38;;;5.50;99.90;;;;;;5045559;28;20470;-75
2021/01/21 07:14:22;;;;;;;8.02;2.70;;;5.40;99.90;;;;;;5038908;28;20033;-75
2021/01/21 07:17:02;;;;;;;7.75;1.10;;;5.30;99.90;;;;;;5042084;28;20533;-75
2021/01/21 07:19:29;;;;;;;3.92;1.00;;;5.50;99.90;;;;;;5038199;28;20417;-75
2021/01/21 07:21:57;;;;;;;4.25;1.40;;;5.70;99.90;;;;;;5039894;28;20108;-74
2021/01/21 07:24:25;;;;;;;1.30;0.40;;;5.70;99.90;;;;;;5045560;28;20489;-75
2021/01/21 07:26:53;;;;;;;1.45;0.50;;;6.20;99.90;;;;;;5039676;28;20040;-75
2021/01/21 07:29:20;;;;;;;2.70;0.73;;;6.60;99.90;;;;;;5039403;28;20048;-75
2021/01/21 07:31:56;;;;;;;3.47;0.50;;;6.70;99.90;;;;;;5041887;28;20029;-75
2021/01/21 07:34:22;;;;;;;3.75;1.23;;;7.00;99.90;;;;;;5038462;28;20037;-75
2021/01/21 07:37:11;;;;;;;8.15;0.93;;;7.10;99.90;;;;;;5041651;28;20120;-75
2021/01/21 07:39:56;;;;;;;6.07;3.03;;;7.20;99.90;;;;;;5042032;28;20405;-75
2021/01/21 07:42:48;;;;;;;5.78;1.52;;;7.20;99.90;;;;;;5039630;28;20666;-75
2021/01/21 07:45:19;;;;;;;5.72;1.95;;;7.10;99.90;;;;;;5034683;28;20060;-75
2021/01/21 07:47:47;;;;;;;4.78;2.10;;;6.90;99.90;;;;;;5036996;28;20029;-76
2021/01/21 07:50:21;;;;;;;5.55;2.03;;;6.90;99.90;;;;;;5031455;28;20818;-75
2021/01/21 07:52:55;;;;;;;6.03;1.77;;;6.70;99.90;;;;;;5041472;28;20047;-75
2021/01/21 07:55:35;;;;;;;7.72;2.70;;;6.70;99.90;;;;;;5036560;28;20132;-75
2021/01/21 07:58:19;;;;;;;7.05;2.95;;;6.60;99.90;;;;;;5037297;28;20437;-75
2021/01/21 08:00:47;;;;;;;8.82;4.05;;;6.50;99.90;;;;;;5037020;28;20502;-75
2021/01/21 08:03:13;;;;;;;10.00;3.70;;;6.40;99.90;;;;;;5037624;28;20064;-75
2021/01/21 08:05:39;;;;;;;11.52;3.65;;;6.30;99.90;;;;;;5039474;28;20025;-75
2021/01/21 08:08:05;;;;;;;6.78;2.15;;;6.30;99.90;;;;;;5037570;28;20457;-75
2021/01/21 08:10:33;;;;;;;9.32;2.20;;;6.30;99.90;;;;;;5042592;28;20068;-75
2021/01/21 08:13:15;;;;;;;9.63;2.80;;;6.30;99.90;;;;;;5036781;28;20390;-75
2021/01/21 08:15:41;;;;;;;11.68;4.03;;;6.10;99.90;;;;;;5039521;28;20524;-75
2021/01/21 08:18:07;;;;;;;11.70;4.05;;;6.00;99.90;;;;;;5045022;28;20485;-75
2021/01/21 08:20:36;;;;;;;13.80;4.13;;;6.00;99.90;;;;;;5041538;28;20065;-75
2021/01/21 08:23:06;;;;;;;10.77;2.53;;;6.00;99.90;;;;;;5029891;28;20041;-75
2021/01/21 08:25:49;;;;;;;11.93;3.00;;;6.00;99.90;;;;;;5038064;28;20501;-75
2021/01/21 08:28:19;;;;;;;6.93;3.00;;;6.00;99.90;;;;;;5041321;28;20112;-75
2021/01/21 08:30:49;;;;;;;9.13;3.03;;;5.90;99.90;;;;;;5032522;28;20030;-75
2021/01/21 08:33:18;;;;;;;8.98;2.92;;;5.90;99.90;;;;;;5028541;28;20052;-75
2021/01/21 08:35:54;;;;;;;9.13;3.30;;;5.90;99.90;;;;;;5037586;28;20394;-75
2021/01/21 08:38:27;;;;;;;6.45;2.53;;;5.90;99.90;;;;;;5047423;28;20463;-75
2021/01/21 08:40:53;;;;;;;14.40;6.32;;;5.80;99.90;;;;;;5042304;28;20120;-75
2021/01/21 08:43:20;;;;;;;9.02;4.43;;;5.80;99.90;;;;;;5045200;28;20076;-75
2021/01/21 08:45:46;;;;;;;9.90;3.72;;;5.80;99.90;;;;;;5041644;28;20037;-75
2021/01/21 08:48:24;;;;;;;13.43;4.32;;;5.80;99.90;;;;;;5043952;28;20083;-75
2021/01/21 08:50:49;;;;;;;14.88;3.95;;;6.00;99.90;;;;;;5039554;28;20040;-76
2021/01/21 08:53:30;;;;;;;8.50;3.60;;;6.00;99.90;;;;;;5047203;28;20374;-75
2021/01/21 08:55:57;;;;;;;9.07;3.08;;;6.10;99.90;;;;;;5042443;28;20036;-75
2021/01/21 08:58:33;;;;;;;11.38;3.50;;;6.10;99.90;;;;;;5039973;28;20037;-75
2021/01/21 09:01:10;;;;;;;10.10;3.28;;;6.20;99.90;;;;;;5043608;28;20372;-75
2021/01/21 09:03:51;;;;;;;10.50;3.45;;;6.30;99.90;;;;;;5043756;28;20033;-75
2021/01/21 09:06:21;;;;;;;12.20;3.95;;;6.30;99.90;;;;;;5042997;28;20092;-75
2021/01/21 09:08:56;;;;;;;31.52;18.25;;;6.20;99.90;;;;;;5037600;28;20087;-75
2021/01/21 09:11:40;;;;;;;21.38;10.13;;;6.30;99.90;;;;;;5042416;28;20542;-75
2021/01/21 09:14:07;;;;;;;12.50;4.00;;;6.30;99.90;;;;;;5045314;28;20060;-75
2021/01/21 09:16:41;;;;;;;9.15;3.53;;;6.40;99.90;;;;;;5043917;28;20062;-75
2021/01/21 09:19:08;;;;;;;7.40;2.47;;;6.50;99.90;;;;;;5038584;28;20422;-75
2021/01/21 09:21:33;;;;;;;8.93;3.05;;;6.60;99.90;;;;;;5038180;28;20116;-75
2021/01/21 09:24:10;;;;;;;10.20;3.70;;;6.70;99.90;;;;;;5046365;28;20105;-75
2021/01/21 09:26:36;;;;;;;16.73;3.03;;;6.80;99.90;;;;;;5038983;28;20040;-75
2021/01/21 09:29:02;;;;;;;12.18;4.35;;;7.00;99.90;;;;;;5041482;28;20344;-75
2021/01/21 09:31:29;;;;;;;9.35;3.90;;;7.10;99.90;;;;;;5037463;28;20375;-75
2021/01/21 09:33:55;;;;;;;8.75;3.30;;;7.10;99.90;;;;;;5045821;28;20433;-76
2021/01/21 09:36:26;;;;;;;9.23;3.33;;;6.90;99.90;;;;;;5042094;28;20041;-75
2021/01/21 09:38:52;;;;;;;84.32;9.80;;;7.00;99.90;;;;;;5035529;28;20029;-76
2021/01/21 09:41:18;;;;;;;36.80;7.03;;;7.20;99.90;;;;;;5041649;28;20071;-76
2021/01/21 09:43:44;;;;;;;30.02;5.85;;;7.20;99.90;;;;;;5046893;28;20085;-75
2021/01/21 09:46:09;;;;;;;24.88;5.18;;;7.20;99.90;;;;;;5045679;28;20404;-75
2021/01/21 09:48:35;;;;;;;12.13;3.97;;;7.20;99.90;;;;;;5039898;28;20029;-75
2021/01/21 09:51:01;;;;;;;15.40;4.10;;;7.30;99.90;;;;;;5043265;28;20040;-75
2021/01/21 09:53:26;;;;;;;12.35;4.00;;;7.40;99.90;;;;;;5037238;28;20530;-75
2021/01/21 09:55:55;;;;;;;9.80;2.72;;;7.30;99.90;;;;;;5039348;28;20248;-75
2021/01/21 09:58:22;;;;;;;10.23;3.53;;;7.40;99.90;;;;;;5044531;28;20481;-75
2021/01/21 10:00:48;;;;;;;18.65;4.22;;;7.60;99.90;;;;;;5042690;28;20146;-75
2021/01/21 10:03:14;;;;;;;15.73;3.95;;;7.70;99.90;;;;;;5036108;28;20558;-75
2021/01/21 10:05:40;;;;;;;14.95;4.60;;;7.80;99.90;;;;;;5041459;28;20112;-75
2021/01/21 10:08:05;;;;;;;16.50;4.57;;;7.90;99.90;;;;;;5047268;28;20040;-76
2021/01/21 10:10:31;;;;;;;17.75;5.53;;;8.00;99.90;;;;;;5042562;28;20033;-76
2021/01/21 10:12:56;;;;;;;19.05;5.15;;;8.00;99.90;;;;;;5036767;28;21442;-75
2021/01/21 10:15:22;;;;;;;13.15;4.57;;;8.00;99.90;;;;;;5042771;28;20033;-75
2021/01/21 10:17:48;;;;;;;10.65;4.15;;;8.00;99.90;;;;;;5039795;28;20037;-75
2021/01/21 10:20:14;;;;;;;12.38;4.28;;;7.80;99.90;;;;;;5037375;28;20044;-75
2021/01/21 10:22:39;;;;;;;8.88;2.35;;;7.90;99.90;;;;;;5045863;28;20064;-75
2021/01/21 10:25:06;;;;;;;35.60;4.72;;;8.00;99.90;;;;;;5042166;28;20080;-76
2021/01/21 10:27:31;;;;;;;24.17;3.92;;;8.20;99.90;;;;;;5045009;28;20028;-75
2021/01/21 10:29:57;;;;;;;19.17;5.13;;;8.30;99.90;;;;;;5041750;28;20460;-76
2021/01/21 10:32:23;;;;;;;14.18;5.32;;;8.40;99.90;;;;;;5041382;28;20056;-75
2021/01/21 10:34:48;;;;;;;13.15;4.50;;;8.50;99.90;;;;;;5042221;28;20037;-76
2021/01/21 10:37:14;;;;;;;12.30;4.35;;;8.40;99.90;;;;;;5037957;28;20063;-76
2021/01/21 10:39:39;;;;;;;15.05;5.00;;;8.40;99.90;;;;;;5039947;28;20489;-76
2021/01/21 10:42:05;;;;;;;9.02;2.50;;;8.40;99.90;;;;;;5032242;28;20029;-75
2021/01/21 10:44:31;;;;;;;11.80;3.13;;;8.40;99.90;;;;;;5046162;28;20072;-76
2021/01/21 10:46:56;;;;;;;16.05;3.58;;;8.50;99.90;;;;;;5036108;28;20449;-76
2021/01/21 10:49:22;;;;;;;12.60;4.07;;;8.60;99.90;;;;;;5034613;28;20216;-76
2021/01/21 10:51:47;;;;;;;12.48;4.22;;;8.70;99.90;;;;;;5036822;28;20041;-75
2021/01/21 10:54:13;;;;;;;10.73;3.72;;;8.70;99.90;;;;;;5044915;28;21003;-76
2021/01/21 10:56:39;;;;;;;9.85;4.32;;;8.70;99.90;;;;;;5039152;28;20108;-76
2021/01/21 10:59:05;;;;;;;12.07;3.70;;;8.80;99.90;;;;;;5038944;28;20037;-76
2021/01/21 11:01:32;;;;;;;10.52;3.13;;;8.80;99.90;;;;;;5037943;28;20059;-76
2021/01/21 11:03:58;;;;;;;6.95;2.83;;;8.70;99.90;;;;;;5038750;28;20126;-76
2021/01/21 11:06:24;;;;;;;10.73;2.60;;;8.70;99.90;;;;;;5037244;28;20036;-75
2021/01/21 11:08:50;;;;;;;10.95;2.88;;;8.70;99.90;;;;;;5041798;28;20016;-76
2021/01/21 11:11:15;;;;;;;8.43;2.70;;;8.70;99.90;;;;;;5040294;28;20663;-75
2021/01/21 11:13:41;;;;;;;9.52;3.40;;;8.80;99.90;;;;;;5045895;28;20500;-75
2021/01/21 11:16:08;;;;;;;10.80;3.15;;;8.80;99.90;;;;;;5037609;28;20437;-76
2021/01/21 11:18:34;;;;;;;10.63;2.60;;;8.80;99.90;;;;;;5043982;28;20017;-75
2021/01/21 11:20:59;;;;;;;11.98;2.88;;;8.80;99.90;;;;;;5044335;28;20423;-76
2021/01/21 11:23:25;;;;;;;6.90;2.28;;;8.80;99.90;;;;;;5042208;28;20108;-75
2021/01/21 11:25:51;;;;;;;7.25;2.63;;;8.80;99.90;;;;;;5042729;28;20044;-75
2021/01/21 11:28:20;;;;;;;4.18;0.70;;;8.90;99.90;;;;;;5036692;28;20038;-76
2021/01/21 11:30:48;;;;;;;3.80;1.02;;;9.10;99.90;;;;;;5036093;28;20032;-76
2021/01/21 11:33:14;;;;;;;5.07;1.42;;;9.30;99.90;;;;;;5041543;28;20025;-75
2021/01/21 11:35:40;;;;;;;8.48;2.88;;;9.30;99.90;;;;;;5044881;28;20048;-76
2021/01/21 11:38:06;;;;;;;7.95;2.33;;;9.20;99.90;;;;;;5037394;28;20450;-76
2021/01/21 11:40:31;;;;;;;5.82;0.70;;;9.30;99.90;;;;;;5040750;28;20033;-76
2021/01/21 11:42:57;;;;;;;5.93;1.17;;;9.40;99.90;;;;;;5044334;28;20057;-76
2021/01/21 11:45:23;;;;;;;4.28;0.70;;;9.50;99.90;;;;;;5033131;28;20384;-76
2021/01/21 11:47:48;;;;;;;6.50;0.80;;;9.50;99.90;;;;;;5034652;28;20474;-76
2021/01/21 11:50:16;;;;;;;3.10;0.70;;;9.60;99.90;;;;;;5039307;28;20743;-75
2021/01/21 11:52:42;;;;;;;4.15;0.75;;;9.70;99.90;;;;;;5036323;28;20029;-75
2021/01/21 11:55:09;;;;;;;2.65;0.65;;;9.80;99.90;;;;;;5041044;28;20037;-76
2021/01/21 11:57:36;;;;;;;2.08;0.55;;;9.90;99.90;;;;;;5041690;28;20039;-75
2021/01/21 12:00:10;;;;;;;2.58;0.80;;;9.90;99.40;;;;;;5041340;28;20041;-76
2021/01/21 12:02:35;;;;;;;2.72;0.60;;;9.90;99.70;;;;;;5036271;28;20035;-76
2021/01/21 12:05:01;;;;;;;3.47;0.85;;;9.90;99.80;;;;;;5033609;28;20394;-76
2021/01/21 12:07:27;;;;;;;6.45;1.27;;;9.90;99.90;;;;;;5038476;28;20032;-76
2021/01/21 12:09:53;;;;;;;4.88;1.85;;;9.90;99.90;;;;;;5039170;28;20029;-76
2021/01/21 12:12:19;;;;;;;6.40;1.38;;;9.90;99.90;;;;;;5035878;28;20635;-76
2021/01/21 12:14:44;;;;;;;3.90;0.50;;;9.70;99.90;;;;;;5043375;28;20375;-76
2021/01/21 12:17:10;;;;;;;1.85;0.40;;;9.90;99.10;;;;;;5043708;28;20120;-76
2021/01/21 12:19:35;;;;;;;3.17;1.02;;;10.00;99.90;;;;;;5044331;28;20056;-76
2021/01/21 12:22:01;;;;;;;5.50;1.70;;;10.00;99.90;;;;;;5042159;28;20051;-76
2021/01/21 12:24:26;;;;;;;9.63;3.47;;;10.10;99.90;;;;;;5041012;28;20036;-76
2021/01/21 12:26:52;;;;;;;11.68;4.22;;;10.00;99.90;;;;;;5035627;28;20117;-76
2021/01/21 12:29:18;;;;;;;13.70;5.30;;;10.00;99.90;;;;;;5035834;28;20463;-75
2021/01/21 12:31:44;;;;;;;11.95;4.60;;;10.00;99.90;;;;;;5041926;28;20061;-76
2021/01/21 12:34:11;;;;;;;11.52;6.38;;;10.00;99.90;;;;;;5036053;28;20029;-76
2021/01/21 12:36:37;;;;;;;8.02;3.53;;;9.90;99.90;;;;;;5037631;28;20045;-76
2021/01/21 12:39:03;;;;;;;11.55;5.07;;;9.80;99.90;;;;;;5039513;28;20496;-76
2021/01/21 12:41:29;;;;;;;11.25;4.95;;;9.90;99.90;;;;;;5033214;28;20047;-76
2021/01/21 12:43:55;;;;;;;11.68;5.30;;;9.90;99.90;;;;;;5037840;28;20486;-76
2021/01/21 12:46:20;;;;;;;6.60;3.17;;;9.80;99.90;;;;;;5037071;28;20029;-76
2021/01/21 12:48:47;;;;;;;11.30;2.47;;;9.90;99.90;;;;;;5036327;28;20032;-76
2021/01/21 12:51:13;;;;;;;5.05;1.48;;;9.80;99.90;;;;;;5037046;28;20060;-77
2021/01/21 12:53:38;;;;;;;8.57;1.70;;;9.80;99.90;;;;;;5030920;28;20464;-76
2021/01/21 12:56:04;;;;;;;4.78;1.08;;;9.80;99.90;;;;;;5037071;28;20041;-76
2021/01/21 12:58:30;;;;;;;4.47;1.08;;;9.80;99.90;;;;;;5034867;28;20044;-76
2021/01/21 13:00:56;;;;;;;3.90;0.90;;;9.70;99.90;;;;;;5038360;28;20045;-76